This is the latest recevied weather packets stored in our database for station/object DL6DJ-15. If no packets are shown the sender has not sent any weather packets the latest 10 day(s).
| Time | Temp. | Humidity | Pressure | Rain* | Wind** | Luminosity | Snow |
|---|---|---|---|---|---|---|---|
| 1777709393 | 28.33° C | 19% | 1025.2 hPa | - | - | - | - |
| 1777709093 | 28.33° C | 19% | 1025.3 hPa | - | - | - | - |
| 1777708792 | 28.33° C | 19% | 1025.2 hPa | - | - | - | - |
| 1777708492 | 28.89° C | 18% | 1025.2 hPa | - | - | - | - |
| 1777708192 | 29.44° C | 19% | 1025.2 hPa | - | - | - | - |
| 1777707892 | 28.89° C | 19% | 1025.4 hPa | - | - | - | - |
| 1777707591 | 28.89° C | 19% | 1025.4 hPa | - | - | - | - |
| 1777707291 | 27.78° C | 22% | 1025.3 hPa | - | - | - | - |
| 1777706990 | 26.67° C | 21% | 1025.4 hPa | - | - | - | - |
| 1777706690 | 25.56° C | 23% | 1025.4 hPa | - | - | - | - |
| 1777706389 | 25° C | 23% | 1025.3 hPa | - | - | - | - |
| 1777706089 | 25° C | 22% | 1025.4 hPa | - | - | - | - |
| 1777705788 | 25.56° C | 22% | 1025.4 hPa | - | - | - | - |
| 1777705488 | 25.56° C | 22% | 1025.4 hPa | - | - | - | - |
| 1777705187 | 25° C | 22% | 1025.5 hPa | - | - | - | - |
| 1777704887 | 25.56° C | 23% | 1025.4 hPa | - | - | - | - |
| 1777704587 | 25.56° C | 25% | 1025.3 hPa | - | - | - | - |
| 1777704287 | 23.89° C | 27% | 1025.4 hPa | - | - | - | - |
| 1777703986 | 23.33° C | 29% | 1025.5 hPa | - | - | - | - |
| 1777703686 | 21.11° C | 33% | 1025.5 hPa | - | - | - | - |
| 1777703385 | 19.44° C | 37% | 1025.4 hPa | - | - | - | - |
| 1777703085 | 19.44° C | 35% | 1025.4 hPa | - | - | - | - |
| 1777702785 | 20.56° C | 34% | 1025.4 hPa | - | - | - | - |
| 1777702484 | 20° C | 35% | 1025.4 hPa | - | - | - | - |
| 1777702184 | 19.44° C | 34% | 1025.4 hPa | - | - | - | - |
* Rain since midnight (hover to see other rain measurements)
** Current wind speed in m/s (hover to see current wind gust speed)